createdAt,value
2018-12-12T00:00:54.998Z,1.75
2018-12-12T00:03:23.332Z,1.05
2018-12-12T00:05:51.707Z,1.98
2018-12-12T00:08:20.133Z,1.35
2018-12-12T00:10:48.570Z,1.57
2018-12-12T00:13:16.898Z,2.00
2018-12-12T00:15:45.267Z,1.22
2018-12-12T00:18:13.817Z,1.67
2018-12-12T00:20:42.170Z,1.77
2018-12-12T00:23:10.495Z,0.90
2018-12-12T00:25:38.851Z,1.15
2018-12-12T00:28:07.203Z,1.17
2018-12-12T00:30:35.549Z,1.57
2018-12-12T00:33:03.863Z,0.95
2018-12-12T00:35:32.230Z,1.30
2018-12-12T00:38:00.558Z,1.92
2018-12-12T00:40:29.010Z,1.70
2018-12-12T00:42:57.382Z,1.27
2018-12-12T00:45:25.739Z,1.75
2018-12-12T00:47:54.054Z,1.80
2018-12-12T00:50:22.418Z,1.85
2018-12-12T00:52:50.747Z,1.42
2018-12-12T00:55:19.075Z,1.75
2018-12-12T00:57:47.740Z,2.45
2018-12-12T01:00:16.054Z,1.27
2018-12-12T01:02:44.518Z,2.35
2018-12-12T01:05:12.845Z,2.00
2018-12-12T01:07:41.191Z,1.32
2018-12-12T01:10:09.519Z,1.52
2018-12-12T01:12:37.873Z,2.25
2018-12-12T01:15:06.422Z,1.60
2018-12-12T01:17:34.777Z,2.22
2018-12-12T01:20:03.235Z,2.72
2018-12-12T01:22:31.589Z,2.90
2018-12-12T01:24:59.912Z,2.60
2018-12-12T01:27:28.458Z,3.08
2018-12-12T01:29:56.783Z,1.30
2018-12-12T01:32:25.155Z,1.77
2018-12-12T01:34:53.561Z,2.45
2018-12-12T01:37:22.061Z,3.10
2018-12-12T01:39:50.392Z,1.70
2018-12-12T01:42:18.754Z,2.17
2018-12-12T01:44:47.145Z,1.30
2018-12-12T01:47:15.485Z,1.22
2018-12-12T01:49:43.817Z,2.67
2018-12-12T01:52:12.166Z,1.90
2018-12-12T01:54:40.494Z,1.60
2018-12-12T01:57:08.845Z,1.87
2018-12-12T01:59:37.190Z,2.65
2018-12-12T02:02:05.537Z,1.95
2018-12-12T02:04:33.857Z,0.80
2018-12-12T02:07:02.238Z,1.57
2018-12-12T02:09:30.561Z,2.08
2018-12-12T02:11:58.916Z,1.05
2018-12-12T02:14:27.255Z,1.60
2018-12-12T02:16:55.617Z,1.62
2018-12-12T02:19:23.939Z,2.35
2018-12-12T02:21:52.325Z,2.10
2018-12-12T02:24:20.650Z,1.42
2018-12-12T02:26:49.017Z,2.58
2018-12-12T02:29:17.355Z,1.72
2018-12-12T02:31:45.714Z,1.42
2018-12-12T02:34:14.051Z,1.05
2018-12-12T02:36:42.413Z,1.30
2018-12-12T02:39:10.757Z,2.30
2018-12-12T02:41:39.111Z,1.82
2018-12-12T02:44:07.440Z,0.90
2018-12-12T02:46:35.899Z,2.25
2018-12-12T02:49:04.328Z,1.80
2018-12-12T02:51:32.678Z,2.05
2018-12-12T02:54:01.010Z,1.72
2018-12-12T02:56:29.382Z,1.77
2018-12-12T02:58:57.706Z,1.82
2018-12-12T03:01:26.077Z,1.95
2018-12-12T03:03:54.423Z,1.05
2018-12-12T03:06:22.791Z,2.12
2018-12-12T03:08:51.126Z,1.30
2018-12-12T03:11:24.135Z,1.45
2018-12-12T03:13:53.198Z,1.32
2018-12-12T03:16:22.051Z,1.65
2018-12-12T03:18:50.490Z,1.72
2018-12-12T03:21:18.989Z,1.27
2018-12-12T03:23:47.303Z,1.32
2018-12-12T03:26:15.662Z,1.12
2018-12-12T03:28:44.059Z,1.92
2018-12-12T03:31:12.423Z,2.08
2018-12-12T03:33:40.978Z,1.75
2018-12-12T03:36:09.340Z,1.45
2018-12-12T03:38:37.671Z,0.70
2018-12-12T03:41:06.091Z,1.65
2018-12-12T03:43:34.432Z,1.50
2018-12-12T03:46:02.794Z,1.60
2018-12-12T03:48:31.129Z,1.85
2018-12-12T03:50:59.494Z,1.75
2018-12-12T03:53:27.831Z,2.20
2018-12-12T03:55:56.181Z,2.00
2018-12-12T03:58:24.521Z,2.40
2018-12-12T04:00:52.976Z,1.62
2018-12-12T04:03:21.316Z,1.20
2018-12-12T04:05:49.689Z,3.45
2018-12-12T04:08:18.026Z,2.50
2018-12-12T04:10:46.501Z,1.20
2018-12-12T04:13:14.838Z,1.87
2018-12-12T04:15:43.214Z,1.52
2018-12-12T04:18:11.544Z,2.10
2018-12-12T04:20:39.921Z,2.00
2018-12-12T04:23:08.267Z,1.77
2018-12-12T04:25:36.650Z,1.10
2018-12-12T04:28:04.979Z,1.80
2018-12-12T04:30:33.352Z,2.27
2018-12-12T04:33:01.678Z,1.67
2018-12-12T04:35:30.050Z,1.40
2018-12-12T04:37:58.377Z,1.40
2018-12-12T04:40:26.747Z,1.30
2018-12-12T04:42:55.070Z,1.45
2018-12-12T04:45:23.402Z,1.60
2018-12-12T04:47:51.767Z,1.67
2018-12-12T04:50:20.114Z,1.35
2018-12-12T04:52:48.450Z,1.55
2018-12-12T04:55:16.801Z,1.42
2018-12-12T04:57:45.165Z,1.80
2018-12-12T05:00:13.484Z,2.17
2018-12-12T05:02:42.137Z,1.00
2018-12-12T05:05:10.453Z,1.02
2018-12-12T05:07:38.860Z,2.20
2018-12-12T05:10:07.394Z,1.55
2018-12-12T05:12:35.815Z,1.45
2018-12-12T05:15:04.563Z,2.25
2018-12-12T05:17:32.954Z,3.15
2018-12-12T05:20:01.318Z,5.33
2018-12-12T05:22:30.620Z,7.62
2018-12-12T05:24:59.102Z,9.50
2018-12-12T05:27:27.474Z,6.35
2018-12-12T05:29:55.869Z,7.42
2018-12-12T05:32:24.246Z,6.35
2018-12-12T05:34:52.587Z,6.37
2018-12-12T05:37:20.953Z,3.65
2018-12-12T05:39:49.309Z,1.50
2018-12-12T05:42:17.690Z,2.50
2018-12-12T05:44:46.074Z,3.95
2018-12-12T05:47:14.414Z,2.15
2018-12-12T05:49:42.774Z,4.20
2018-12-12T05:52:11.177Z,2.35
2018-12-12T05:54:39.542Z,2.35
2018-12-12T05:57:07.877Z,3.10
2018-12-12T05:59:36.261Z,1.60
2018-12-12T06:02:04.842Z,1.62
2018-12-12T06:04:34.865Z,1.87
2018-12-12T06:07:03.334Z,1.85
2018-12-12T06:09:31.664Z,2.62
2018-12-12T06:12:00.035Z,1.72
2018-12-12T06:14:28.373Z,2.67
2018-12-12T06:16:56.738Z,4.08
2018-12-12T06:19:25.130Z,2.27
2018-12-12T06:21:53.479Z,2.17
2018-12-12T06:24:21.810Z,1.98
2018-12-12T06:26:50.173Z,1.17
2018-12-12T06:29:18.570Z,1.82
2018-12-12T06:31:46.913Z,2.12
2018-12-12T06:34:15.271Z,2.22
2018-12-12T06:36:43.635Z,1.90
2018-12-12T06:39:11.967Z,1.70
2018-12-12T06:41:40.329Z,2.05
2018-12-12T06:44:08.669Z,2.37
2018-12-12T06:46:37.058Z,1.47
2018-12-12T06:49:05.425Z,2.12
2018-12-12T06:51:33.813Z,1.60
2018-12-12T06:54:02.165Z,3.17
2018-12-12T06:56:30.501Z,1.65
2018-12-12T06:58:58.879Z,2.45
2018-12-12T07:01:27.207Z,2.20
2018-12-12T07:03:55.590Z,1.80
2018-12-12T07:06:23.917Z,1.17
2018-12-12T07:08:52.254Z,2.12
2018-12-12T07:11:20.650Z,1.67
2018-12-12T07:13:48.966Z,1.40
2018-12-12T07:16:17.360Z,2.30
2018-12-12T07:18:45.769Z,3.22
2018-12-12T07:21:14.117Z,2.83
2018-12-12T07:23:42.437Z,3.37
2018-12-12T07:26:10.803Z,2.80
2018-12-12T07:28:39.121Z,2.83
2018-12-12T07:31:07.603Z,3.47
2018-12-12T07:33:35.927Z,3.17
2018-12-12T07:36:04.283Z,3.00
2018-12-12T07:38:32.731Z,2.55
2018-12-12T07:41:01.062Z,1.12
2018-12-12T07:43:29.389Z,2.40
2018-12-12T07:45:57.758Z,1.60
2018-12-12T07:48:26.088Z,3.15
2018-12-12T07:50:54.443Z,1.80
2018-12-12T07:53:22.766Z,2.17
2018-12-12T07:55:51.154Z,1.32
2018-12-12T07:58:19.474Z,1.90
2018-12-12T08:00:47.940Z,1.55
2018-12-12T08:03:16.286Z,2.12
2018-12-12T08:05:44.666Z,2.50
2018-12-12T08:08:19.753Z,1.45
2018-12-12T08:10:48.121Z,1.55
2018-12-12T08:13:16.455Z,1.85
2018-12-12T08:15:44.870Z,2.08
2018-12-12T08:18:13.255Z,2.70
2018-12-12T08:20:41.642Z,1.80
2018-12-12T08:23:10.385Z,1.98
2018-12-12T08:25:38.818Z,1.70
2018-12-12T08:28:07.286Z,2.75
2018-12-12T08:30:35.620Z,1.82
2018-12-12T08:33:04.018Z,3.45
2018-12-12T08:35:32.434Z,2.87
2018-12-12T08:38:00.799Z,2.65
2018-12-12T08:40:29.137Z,2.85
2018-12-12T08:42:57.498Z,2.15
2018-12-12T08:45:25.825Z,4.25
2018-12-12T08:47:54.197Z,2.45
2018-12-12T08:50:22.578Z,2.92
2018-12-12T08:52:50.917Z,2.58
2018-12-12T08:55:19.247Z,2.00
2018-12-12T08:57:47.614Z,2.72
2018-12-12T09:00:15.990Z,3.20
2018-12-12T09:02:44.335Z,2.65
2018-12-12T09:05:12.702Z,4.35
2018-12-12T09:07:41.058Z,4.35
2018-12-12T09:10:10.000Z,3.15
2018-12-12T09:12:38.358Z,2.25
2018-12-12T09:15:07.122Z,3.30
2018-12-12T09:17:35.469Z,4.97
2018-12-12T09:20:04.298Z,3.50
2018-12-12T09:22:32.661Z,4.35
2018-12-12T09:25:01.020Z,2.80
2018-12-12T09:27:29.347Z,4.33
2018-12-12T09:29:57.714Z,3.77
2018-12-12T09:32:26.042Z,5.35
2018-12-12T09:34:54.405Z,4.40
2018-12-12T09:37:22.830Z,4.28
2018-12-12T09:39:51.198Z,2.98
2018-12-12T09:42:19.621Z,6.17
2018-12-12T09:44:47.977Z,4.20
2018-12-12T09:47:16.343Z,3.50
2018-12-12T09:49:44.701Z,5.47
2018-12-12T09:52:13.054Z,3.90
2018-12-12T09:54:41.414Z,3.52
2018-12-12T09:57:09.754Z,4.35
2018-12-12T09:59:38.133Z,3.83
2018-12-12T10:02:06.474Z,3.00
2018-12-12T10:04:34.828Z,4.28
2018-12-12T10:07:03.226Z,3.95
2018-12-12T10:09:31.602Z,4.12
2018-12-12T10:11:59.983Z,4.67
2018-12-12T10:14:28.373Z,3.65
2018-12-12T10:16:56.743Z,3.50
2018-12-12T10:19:25.078Z,4.85
2018-12-12T10:21:53.959Z,4.50
2018-12-12T10:24:22.406Z,4.75
2018-12-12T10:26:50.769Z,2.52
2018-12-12T10:29:19.211Z,3.08
2018-12-12T10:31:47.604Z,3.15
2018-12-12T10:34:15.953Z,4.42
2018-12-12T10:36:44.294Z,5.20
2018-12-12T10:39:12.665Z,3.15
2018-12-12T10:41:41.000Z,2.83
2018-12-12T10:44:09.362Z,3.27
2018-12-12T10:46:37.690Z,5.08
2018-12-12T10:49:06.079Z,2.55
2018-12-12T10:51:34.521Z,3.15
2018-12-12T10:54:02.939Z,3.25
2018-12-12T10:56:31.271Z,3.00
2018-12-12T10:59:00.738Z,4.70
2018-12-12T11:01:33.297Z,2.75
2018-12-12T11:04:01.678Z,3.10
2018-12-12T11:06:30.028Z,2.80
2018-12-12T11:08:58.402Z,6.37
2018-12-12T11:11:26.736Z,5.60
2018-12-12T11:13:55.094Z,3.37
2018-12-12T11:16:23.475Z,3.83
2018-12-12T11:18:51.815Z,3.72
2018-12-12T11:21:20.188Z,4.17
2018-12-12T11:23:48.550Z,4.83
2018-12-12T11:26:16.913Z,4.72
2018-12-12T11:28:45.243Z,3.80
2018-12-12T11:31:13.597Z,3.85
2018-12-12T11:33:41.926Z,3.05
2018-12-12T11:36:10.284Z,2.55
2018-12-12T11:38:38.711Z,5.20
2018-12-12T11:41:07.080Z,2.90
2018-12-12T11:43:36.414Z,3.00
2018-12-12T11:46:04.741Z,3.47
2018-12-12T11:48:33.094Z,4.83
2018-12-12T11:51:01.410Z,1.45
2018-12-12T11:53:29.762Z,1.72
2018-12-12T11:55:58.122Z,1.65
2018-12-12T11:58:26.485Z,3.83
2018-12-12T12:00:54.845Z,1.92
2018-12-12T12:03:23.226Z,2.90
2018-12-12T12:05:51.587Z,3.72
2018-12-12T12:08:19.936Z,2.10
2018-12-12T12:10:48.301Z,2.80
2018-12-12T12:13:16.705Z,2.70
2018-12-12T12:15:45.071Z,2.20
2018-12-12T12:18:13.449Z,2.90
2018-12-12T12:20:41.807Z,3.42
2018-12-12T12:23:10.209Z,3.90
2018-12-12T12:25:38.634Z,3.67
2018-12-12T12:28:06.975Z,3.45
2018-12-12T12:30:35.356Z,3.02
2018-12-12T12:33:03.702Z,2.12
2018-12-12T12:35:32.065Z,2.47
2018-12-12T12:38:00.415Z,2.75
2018-12-12T12:40:28.798Z,3.62
2018-12-12T12:42:57.154Z,3.67
2018-12-12T12:45:25.497Z,1.87
2018-12-12T12:47:53.854Z,2.70
2018-12-12T12:50:22.172Z,4.08
2018-12-12T12:52:50.534Z,2.98
2018-12-12T12:55:18.870Z,4.45
2018-12-12T12:57:47.250Z,2.27
2018-12-12T13:00:15.580Z,2.60
2018-12-12T13:02:43.899Z,2.77
2018-12-12T13:05:12.241Z,2.85
2018-12-12T13:07:40.638Z,2.37
2018-12-12T13:10:11.667Z,2.33
2018-12-12T13:12:39.454Z,2.25
2018-12-12T13:15:07.889Z,1.95
2018-12-12T13:17:36.214Z,2.10
2018-12-12T13:20:05.678Z,2.75
2018-12-12T13:22:34.006Z,1.80
2018-12-12T13:25:02.365Z,2.80
2018-12-12T13:27:30.688Z,3.90
2018-12-12T13:29:59.038Z,2.42
2018-12-12T13:32:27.358Z,2.10
2018-12-12T13:34:55.718Z,2.37
2018-12-12T13:37:24.039Z,1.60
2018-12-12T13:39:52.398Z,2.37
2018-12-12T13:42:20.726Z,3.20
2018-12-12T13:44:49.087Z,2.33
2018-12-12T13:47:17.557Z,2.15
2018-12-12T13:49:45.898Z,3.62
2018-12-12T13:52:14.249Z,2.55
2018-12-12T13:54:42.730Z,2.45
2018-12-12T13:57:11.102Z,4.60
2018-12-12T13:59:39.420Z,2.85
2018-12-12T14:02:07.799Z,2.52
2018-12-12T14:04:36.131Z,3.33
2018-12-12T14:07:04.703Z,4.30
2018-12-12T14:09:33.038Z,3.90
2018-12-12T14:12:01.395Z,2.12
2018-12-12T14:14:29.761Z,1.62
2018-12-12T14:16:58.122Z,2.37
2018-12-12T14:19:26.439Z,3.30
2018-12-12T14:21:54.820Z,1.72
2018-12-12T14:24:23.126Z,3.25
2018-12-12T14:26:51.481Z,2.50
2018-12-12T14:29:19.817Z,3.35
2018-12-12T14:31:48.178Z,2.20
2018-12-12T14:34:16.502Z,2.75
2018-12-12T14:36:44.863Z,2.75
2018-12-12T14:39:13.297Z,1.98
2018-12-12T14:41:41.617Z,2.62
2018-12-12T14:44:09.982Z,2.25
2018-12-12T14:46:38.366Z,2.20
2018-12-12T14:49:06.691Z,1.40
2018-12-12T14:51:35.051Z,1.87
2018-12-12T14:54:03.440Z,2.33
2018-12-12T14:56:31.820Z,3.30
2018-12-12T14:59:00.157Z,2.50
2018-12-12T15:01:28.516Z,2.95
2018-12-12T15:03:56.858Z,2.17
2018-12-12T15:06:25.322Z,3.17
2018-12-12T15:08:53.650Z,1.87
2018-12-12T15:11:22.017Z,2.02
2018-12-12T15:13:50.362Z,2.47
2018-12-12T15:16:18.741Z,2.77
2018-12-12T15:18:47.140Z,2.25
2018-12-12T15:21:15.530Z,1.70
2018-12-12T15:23:43.868Z,2.80
2018-12-12T15:26:12.335Z,3.45
2018-12-12T15:28:40.690Z,2.08
2018-12-12T15:31:09.038Z,2.12
2018-12-12T15:33:37.402Z,2.27
2018-12-12T15:36:05.771Z,1.85
2018-12-12T15:38:34.134Z,3.17
2018-12-12T15:41:02.509Z,2.00
2018-12-12T15:43:30.883Z,3.17
2018-12-12T15:45:59.261Z,2.08
2018-12-12T15:48:27.591Z,3.00
2018-12-12T15:50:55.942Z,3.33
2018-12-12T15:53:24.390Z,3.52
2018-12-12T15:55:52.727Z,3.30
2018-12-12T15:58:21.102Z,1.95
2018-12-12T16:00:49.438Z,2.17
2018-12-12T16:03:18.214Z,2.42
2018-12-12T16:05:46.549Z,2.98
2018-12-12T16:08:14.978Z,2.25
2018-12-12T16:10:43.322Z,3.08
2018-12-12T16:13:11.661Z,4.87
2018-12-12T16:15:40.027Z,3.05
2018-12-12T16:18:08.399Z,2.83
2018-12-12T16:20:36.735Z,2.20
2018-12-12T16:23:05.099Z,2.25
2018-12-12T16:25:33.455Z,3.40
2018-12-12T16:28:01.860Z,2.33
2018-12-12T16:30:30.270Z,1.98
2018-12-12T16:33:00.123Z,3.40
2018-12-12T16:35:28.614Z,2.85
2018-12-12T16:37:56.950Z,2.55
2018-12-12T16:40:25.322Z,3.05
2018-12-12T16:42:53.662Z,3.22
2018-12-12T16:45:22.041Z,2.77
2018-12-12T16:47:50.418Z,2.17
2018-12-12T16:50:18.750Z,2.75
2018-12-12T16:52:47.096Z,2.02
2018-12-12T16:55:15.476Z,2.08
2018-12-12T16:57:43.827Z,2.05
2018-12-12T17:00:12.431Z,2.67
2018-12-12T17:02:40.742Z,2.35
2018-12-12T17:05:09.098Z,2.05
2018-12-12T17:07:37.434Z,3.67
2018-12-12T17:10:10.587Z,3.00
2018-12-12T17:12:37.214Z,2.33
2018-12-12T17:15:06.290Z,2.05
2018-12-12T17:17:34.725Z,4.15
2018-12-12T17:20:03.302Z,3.58
2018-12-12T17:22:31.770Z,2.33
2018-12-12T17:25:00.136Z,3.05
2018-12-12T17:27:28.467Z,3.35
2018-12-12T17:29:56.834Z,2.15
2018-12-12T17:32:25.193Z,3.42
2018-12-12T17:34:53.522Z,4.08
2018-12-12T17:37:21.914Z,2.10
2018-12-12T17:39:50.252Z,3.42
2018-12-12T17:42:18.610Z,2.92
2018-12-12T17:44:47.014Z,2.70
2018-12-12T17:47:15.359Z,2.92
2018-12-12T17:49:43.701Z,2.33
2018-12-12T17:52:12.149Z,2.45
2018-12-12T17:54:40.506Z,2.83
2018-12-12T17:57:08.846Z,2.70
2018-12-12T17:59:37.194Z,2.55
2018-12-12T18:02:05.862Z,2.60
2018-12-12T18:04:34.207Z,1.75
2018-12-12T18:07:02.527Z,2.12
2018-12-12T18:09:30.894Z,3.10
2018-12-12T18:11:59.350Z,2.00
2018-12-12T18:14:27.680Z,2.20
2018-12-12T18:16:56.073Z,1.85
2018-12-12T18:19:24.429Z,3.52
2018-12-12T18:21:52.854Z,1.90
2018-12-12T18:24:21.197Z,2.50
2018-12-12T18:26:49.517Z,2.85
2018-12-12T18:29:17.885Z,2.30
2018-12-12T18:31:46.255Z,2.30
2018-12-12T18:34:14.625Z,2.33
2018-12-12T18:36:42.958Z,2.70
2018-12-12T18:39:11.497Z,2.92
2018-12-12T18:41:39.915Z,1.40
2018-12-12T18:44:08.263Z,3.45
2018-12-12T18:46:36.670Z,3.65
2018-12-12T18:49:05.023Z,2.27
2018-12-12T18:51:33.358Z,2.05
2018-12-12T18:54:01.728Z,0.98
2018-12-12T18:56:30.084Z,2.05
2018-12-12T18:58:58.454Z,0.95
2018-12-12T19:01:26.879Z,2.35
2018-12-12T19:03:55.278Z,1.42
2018-12-12T19:06:23.608Z,1.55
2018-12-12T19:08:51.994Z,1.42
2018-12-12T19:11:20.341Z,3.83
2018-12-12T19:13:48.747Z,1.92
2018-12-12T19:16:17.093Z,3.30
2018-12-12T19:18:45.474Z,2.90
2018-12-12T19:21:13.818Z,2.15
2018-12-12T19:23:42.501Z,1.40
2018-12-12T19:26:10.857Z,1.95
2018-12-12T19:28:39.236Z,1.70
2018-12-12T19:31:07.578Z,1.10
2018-12-12T19:33:35.937Z,1.05
2018-12-12T19:36:04.265Z,0.80
2018-12-12T19:38:32.636Z,1.87
2018-12-12T19:41:01.004Z,1.42
2018-12-12T19:43:30.402Z,1.20
2018-12-12T19:45:58.729Z,1.30
2018-12-12T19:48:27.110Z,1.55
2018-12-12T19:50:55.446Z,2.58
2018-12-12T19:53:24.060Z,1.50
2018-12-12T19:55:52.510Z,1.35
2018-12-12T19:58:20.854Z,1.30
2018-12-12T20:00:49.350Z,1.30
2018-12-12T20:03:17.754Z,0.93
2018-12-12T20:05:46.174Z,1.27
2018-12-12T20:08:14.513Z,1.35
2018-12-12T20:10:43.002Z,0.65
2018-12-12T20:13:11.338Z,0.90
2018-12-12T20:15:46.970Z,0.93
2018-12-12T20:18:15.310Z,2.92
2018-12-12T20:20:43.718Z,2.95
2018-12-12T20:23:12.070Z,1.62
2018-12-12T20:25:40.486Z,1.15
2018-12-12T20:28:08.897Z,0.80
2018-12-12T20:30:37.247Z,0.82
2018-12-12T20:33:05.812Z,0.98
2018-12-12T20:35:39.161Z,1.47
2018-12-12T20:38:11.909Z,0.88
2018-12-12T20:40:40.246Z,1.10
2018-12-12T20:43:08.652Z,0.80
2018-12-12T20:45:36.988Z,1.00
2018-12-12T20:48:05.401Z,0.70
2018-12-12T20:50:33.734Z,1.42
2018-12-12T20:53:02.174Z,1.82
2018-12-12T20:55:30.628Z,2.02
2018-12-12T20:57:59.014Z,1.17
2018-12-12T21:00:27.361Z,1.12
2018-12-12T21:02:55.750Z,1.35
2018-12-12T21:05:24.093Z,1.77
2018-12-12T21:07:52.495Z,1.10
2018-12-12T21:10:20.946Z,0.98
2018-12-12T21:12:49.326Z,1.90
2018-12-12T21:15:17.666Z,0.85
2018-12-12T21:17:46.058Z,1.35
2018-12-12T21:20:14.513Z,1.67
2018-12-12T21:22:42.878Z,1.67
2018-12-12T21:25:11.211Z,1.17
2018-12-12T21:27:39.596Z,2.22
2018-12-12T21:30:08.310Z,1.05
2018-12-12T21:32:36.678Z,0.95
2018-12-12T21:35:05.350Z,1.57
2018-12-12T21:37:33.713Z,1.50
2018-12-12T21:40:02.055Z,1.00
2018-12-12T21:42:30.440Z,1.45
2018-12-12T21:44:58.782Z,1.45
2018-12-12T21:47:27.149Z,2.02
2018-12-12T21:49:55.486Z,1.75
2018-12-12T21:52:23.858Z,1.35
2018-12-12T21:54:52.201Z,1.60
2018-12-12T21:57:20.566Z,2.85
2018-12-12T21:59:49.018Z,1.40
2018-12-12T22:02:17.414Z,0.88
2018-12-12T22:04:45.739Z,1.72
2018-12-12T22:07:14.150Z,1.30
2018-12-12T22:09:43.047Z,1.35
2018-12-12T22:12:11.408Z,1.25
2018-12-12T22:14:39.750Z,1.57
2018-12-12T22:17:08.258Z,1.25
2018-12-12T22:19:36.773Z,1.72
2018-12-12T22:22:05.301Z,0.93
2018-12-12T22:24:34.688Z,1.80
2018-12-12T22:27:03.054Z,1.52
2018-12-12T22:29:31.378Z,2.25
2018-12-12T22:31:59.763Z,1.25
2018-12-12T22:34:28.126Z,0.90
2018-12-12T22:36:56.494Z,1.87
2018-12-12T22:39:24.842Z,1.85
2018-12-12T22:41:53.218Z,1.52
2018-12-12T22:44:21.550Z,0.93
2018-12-12T22:46:49.969Z,1.82
2018-12-12T22:49:18.651Z,1.72
2018-12-12T22:51:47.066Z,1.15
2018-12-12T22:54:15.442Z,1.98
2018-12-12T22:56:43.806Z,2.67
2018-12-12T22:59:12.138Z,1.80
2018-12-12T23:01:40.562Z,2.40
2018-12-12T23:04:08.926Z,1.00
2018-12-12T23:06:37.294Z,1.15
2018-12-12T23:09:08.650Z,2.17
2018-12-12T23:11:37.034Z,1.45
2018-12-12T23:14:05.363Z,1.45
2018-12-12T23:16:33.757Z,1.07
2018-12-12T23:19:02.098Z,2.05
2018-12-12T23:21:30.421Z,1.75
2018-12-12T23:23:58.803Z,1.80
2018-12-12T23:26:27.126Z,1.45
2018-12-12T23:28:55.506Z,1.62
2018-12-12T23:31:23.858Z,1.05
2018-12-12T23:33:52.243Z,1.47
2018-12-12T23:36:26.796Z,1.40
2018-12-12T23:38:50.986Z,1.42
2018-12-12T23:41:19.322Z,1.62
2018-12-12T23:43:47.694Z,1.77
2018-12-12T23:46:16.310Z,2.35
2018-12-12T23:48:44.763Z,1.80
2018-12-12T23:51:13.113Z,1.00
2018-12-12T23:53:41.522Z,1.87
2018-12-12T23:56:09.864Z,1.70
2018-12-12T23:58:38.224Z,1.67
